Hamlet, Illinois
Current Conditions -  °F | °C
As of 4:52 PM on Thursday 18 Dec 2014 (Local Time) from KMLI Reporting Station
Overcast Overcast  
Wind Chill: 20°   Ceiling: 9000
Heat Index: 27°   Visibility: 10mi
Dew Point: 17°   Wind: 6mph
Humidity: 66%   Direction: 350°N
Pressure: 30.26"   Gusts: NA
Location:  41.1928°N, 90.7165°W
Report Text: KMLI 182252Z 35005KT 10SM OVC090 M03/M08 A3026 RMK AO2 SLP258 T10281083
Loading
Personal Weather Stations






























Interactive Weather Map New forecast layout! Learn more

10-Day Weather Forecast

Advertisements
Track Severe Weather on mobile